Time;durP1;ratioP1;P1;durP2;ratioP2;P2;SDS_P1;SDS_P2;PMS_P1;PMS_P2;Temp;Humidity;BMP_temperature;BMP_pressure;BME280_temperature;BME280_humidity;BME280_pressure;Samples;Min_cycle;Max_cycle;Signal;HPM_P1;HPM_P2
2023/07/25 00:02:28;;;;;;;9.13;3.87;;;;;;;26.97;40.00;98728.78;7631856;32;40077;-84
2023/07/25 00:06:45;;;;;;;9.10;4.65;;;;;;;26.93;40.57;98733.59;7643182;32;39836;-84
2023/07/25 00:11:01;;;;;;;10.65;4.93;;;;;;;26.88;40.56;98756.38;7631736;32;37544;-84
2023/07/25 00:15:17;;;;;;;12.18;4.68;;;;;;;26.70;41.82;98767.66;7631524;32;37946;-84
2023/07/25 00:19:33;;;;;;;12.57;4.30;;;;;;;26.68;41.86;98741.31;7631594;32;39461;-85
2023/07/25 00:23:50;;;;;;;10.25;4.07;;;;;;;26.97;41.00;98742.78;7631415;32;40817;-85
2023/07/25 00:28:06;;;;;;;8.23;3.65;;;;;;;26.96;39.50;98740.38;7631269;32;38769;-84
2023/07/25 00:32:22;;;;;;;11.05;3.85;;;;;;;26.80;39.94;98746.44;7631350;32;37751;-84
2023/07/25 00:36:39;;;;;;;10.15;4.35;;;;;;;26.75;41.05;98744.06;7631207;32;38980;-85
2023/07/25 00:40:55;;;;;;;11.02;4.22;;;;;;;26.73;41.00;98749.28;7631093;32;39893;-82
2023/07/25 00:45:12;;;;;;;9.27;4.07;;;;;;;26.60;41.80;98758.09;7631058;32;37904;-85
2023/07/25 00:49:29;;;;;;;10.02;4.30;;;;;;;26.65;41.41;98737.34;7630904;32;36988;-86
2023/07/25 00:53:45;;;;;;;7.45;3.58;;;;;;;26.57;41.60;98742.13;7630611;32;39578;-84
2023/07/25 00:58:02;;;;;;;6.87;3.78;;;;;;;26.73;41.26;98735.28;7630542;32;39838;-87
2023/07/25 01:02:18;;;;;;;10.57;3.90;;;;;;;26.74;41.06;98748.88;7630512;32;38045;-85
2023/07/25 01:06:36;;;;;;;9.25;4.10;;;;;;;26.60;40.70;98769.25;7630574;32;37081;-85
2023/07/25 01:10:53;;;;;;;9.13;3.87;;;;;;;26.73;40.95;98766.03;7630382;32;40105;-85
2023/07/25 01:15:09;;;;;;;9.02;3.78;;;;;;;26.75;40.63;98781.22;7630153;32;40015;-84
2023/07/25 01:19:28;;;;;;;9.88;3.83;;;;;;;26.43;40.97;98786.88;7630113;32;38618;-86
2023/07/25 01:23:45;;;;;;;8.90;3.83;;;;;;;26.41;41.54;98800.47;7630164;32;36465;-86
2023/07/25 01:28:01;;;;;;;9.32;3.70;;;;;;;26.37;43.74;98808.03;7628832;32;39126;-85
2023/07/25 01:32:17;;;;;;;7.37;3.80;;;;;;;26.27;45.17;98801.31;7629950;32;40021;-85
2023/07/25 01:36:34;;;;;;;8.50;3.92;;;;;;;26.27;45.71;98789.31;7655784;32;37861;-86
2023/07/25 01:40:50;;;;;;;10.98;4.12;;;;;;;25.99;47.85;98804.91;7656111;32;37340;-84
2023/07/25 01:45:07;;;;;;;8.60;3.78;;;;;;;25.78;47.62;98803.69;7659733;32;39341;-84
2023/07/25 01:49:24;;;;;;;9.00;3.70;;;;;;;25.68;46.81;98801.69;7659697;32;39940;-85
2023/07/25 01:53:40;;;;;;;10.73;4.05;;;;;;;25.66;48.37;98799.31;7659536;32;38005;-86
2023/07/25 01:57:56;;;;;;;10.25;4.03;;;;;;;25.42;46.56;98798.09;7659395;32;37886;-85
2023/07/25 02:02:13;;;;;;;8.30;3.20;;;;;;;24.95;46.60;98785.97;7659501;32;39362;-85
2023/07/25 02:06:29;;;;;;;7.20;3.40;;;;;;;25.23;45.45;98771.34;7659436;32;39782;-84
2023/07/25 02:10:45;;;;;;;11.15;3.03;;;;;;;25.25;46.06;98760.59;7659342;32;38082;-85
2023/07/25 02:15:02;;;;;;;7.68;3.45;;;;;;;25.55;45.21;98739.91;7659312;32;37049;-85
2023/07/25 02:19:18;;;;;;;7.43;3.50;;;;;;;25.70;46.83;98723.97;7659274;32;39412;-85
2023/07/25 02:23:34;;;;;;;9.98;3.53;;;;;;;25.40;48.53;98697.25;7659233;32;40766;-85
2023/07/25 02:27:51;;;;;;;9.80;3.62;;;;;;;25.38;48.40;98668.97;7659144;32;37899;-85
2023/07/25 02:32:08;;;;;;;10.48;3.83;;;;;;;25.36;47.96;98654.63;7659181;32;37134;-85
2023/07/25 02:36:24;;;;;;;7.22;3.35;;;;;;;25.12;49.05;98690.44;7659076;32;39402;-85
2023/07/25 02:40:41;;;;;;;10.13;3.83;;;;;;;25.20;48.87;98698.78;7659021;32;39959;-86
2023/07/25 02:44:57;;;;;;;10.82;3.90;;;;;;;25.20;48.88;98674.50;7659235;32;38401;-85
2023/07/25 02:49:13;;;;;;;12.18;4.05;;;;;;;25.43;48.53;98631.50;7658963;32;37123;-85
2023/07/25 02:53:30;;;;;;;8.30;3.80;;;;;;;25.11;49.58;98588.47;7657834;32;40037;-85
2023/07/25 02:57:46;;;;;;;8.88;3.80;;;;;;;24.96;49.20;98570.16;7658616;32;39842;-86
2023/07/25 03:02:02;;;;;;;8.45;3.47;;;;;;;24.82;49.31;98570.94;7658677;32;37970;-85
2023/07/25 03:06:19;;;;;;;10.32;3.72;;;;;;;24.68;49.64;98599.59;7658527;32;37177;-85
2023/07/25 03:10:35;;;;;;;9.95;3.58;;;;;;;24.21;49.94;98629.28;7658701;32;39864;-84
2023/07/25 03:14:51;;;;;;;10.98;4.07;;;;;;;23.48;54.11;98635.63;7658546;32;40815;-85
2023/07/25 03:19:08;;;;;;;9.85;3.67;;;;;;;23.88;53.56;98631.09;7658699;32;37836;-85
2023/07/25 03:23:24;;;;;;;9.13;4.10;;;;;;;23.97;53.70;98628.78;7658639;32;36986;-85
2023/07/25 03:27:40;;;;;;;8.77;4.00;;;;;;;23.71;55.41;98637.34;7658619;32;40016;-84
2023/07/25 03:31:57;;;;;;;8.95;4.10;;;;;;;23.53;56.30;98648.38;7657305;32;39863;-83
2023/07/25 03:36:13;;;;;;;7.22;3.80;;;;;;;23.37;56.14;98641.09;7658483;32;38523;-84
2023/07/25 03:40:29;;;;;;;10.45;3.95;;;;;;;23.59;55.22;98636.50;7658409;32;37090;-84
2023/07/25 03:44:46;;;;;;;7.53;3.83;;;;;;;23.57;55.32;98619.38;7658299;32;40038;-83
2023/07/25 03:49:02;;;;;;;8.70;4.03;;;;;;;23.42;56.62;98626.03;7658207;32;39924;-84
2023/07/25 03:53:18;;;;;;;8.52;3.60;;;;;;;23.71;55.97;98632.56;7658154;32;37990;-84
2023/07/25 03:57:35;;;;;;;7.47;3.42;;;;;;;23.91;55.16;98640.69;7658037;32;36752;-84
2023/07/25 04:01:51;;;;;;;6.65;3.12;;;;;;;24.00;54.35;98646.69;7658517;32;37910;-84
2023/07/25 04:06:08;;;;;;;7.47;3.45;;;;;;;23.80;53.94;98643.34;7657656;32;39894;-83
2023/07/25 04:10:24;;;;;;;8.98;3.85;;;;;;;23.96;52.92;98627.19;7657860;32;37926;-84
2023/07/25 04:14:40;;;;;;;10.73;3.35;;;;;;;24.05;52.52;98623.25;7657981;32;37061;-83
2023/07/25 04:18:57;;;;;;;6.87;3.22;;;;;;;24.07;51.54;98637.56;7656757;32;38941;-83
2023/07/25 04:23:14;;;;;;;10.73;3.58;;;;;;;23.98;51.44;98635.94;7657817;32;39959;-83
2023/07/25 04:27:31;;;;;;;8.23;3.80;;;;;;;24.14;51.59;98615.31;7657473;32;38652;-83
2023/07/25 04:31:48;;;;;;;7.15;3.10;;;;;;;24.05;51.15;98631.59;7657670;32;37782;-84
2023/07/25 04:36:05;;;;;;;6.00;3.20;;;;;;;24.24;50.67;98641.63;7657424;32;40112;-84
2023/07/25 04:40:21;;;;;;;8.18;3.45;;;;;;;24.25;51.03;98640.41;7657422;32;40157;-79
2023/07/25 04:44:38;;;;;;;10.98;3.50;;;;;;;24.36;51.44;98638.47;7657180;32;37873;-79
2023/07/25 04:48:54;;;;;;;9.32;3.45;;;;;;;24.59;51.12;98652.09;7657151;32;37186;-78
2023/07/25 04:53:11;;;;;;;7.45;3.55;;;;;;;24.68;50.99;98644.19;7657082;32;39372;-78
2023/07/25 04:57:27;;;;;;;10.63;3.70;;;;;;;24.73;51.51;98641.00;7656819;32;39720;-79
2023/07/25 05:01:44;;;;;;;11.45;3.50;;;;;;;24.98;51.00;98639.44;7655577;32;37815;-77
2023/07/25 05:06:00;;;;;;;7.70;2.97;;;;;;;25.04;50.67;98632.28;7656683;32;37913;-78
2023/07/25 05:10:17;;;;;;;7.30;3.17;;;;;;;25.34;50.03;98617.97;7656640;32;39293;-78
2023/07/25 05:14:33;;;;;;;8.35;3.45;;;;;;;25.40;50.40;98624.72;7656669;32;40393;-78
2023/07/25 05:18:49;;;;;;;11.38;4.15;;;;;;;25.29;49.22;98621.94;7660064;32;39608;-79
2023/07/25 05:23:06;;;;;;;9.68;3.70;;;;;;;25.43;49.37;98609.97;7660004;32;37190;-79
2023/07/25 05:27:22;;;;;;;6.70;3.08;;;;;;;25.55;49.68;98607.97;7659976;32;39299;-81
2023/07/25 05:31:38;;;;;;;8.30;3.30;;;;;;;25.60;49.86;98618.72;7659829;32;40809;-80
2023/07/25 05:36:04;;;;;;;10.02;3.05;;;;;;;25.78;49.62;98619.47;7642919;32;38998;-81
2023/07/25 05:40:20;;;;;;;6.82;3.42;;;;;;;25.94;48.75;98627.44;7633418;32;37822;-82
2023/07/25 05:44:37;;;;;;;8.00;3.37;;;;;;;26.01;48.41;98640.59;7633072;32;39029;-76
2023/07/25 05:48:53;;;;;;;8.80;3.45;;;;;;;25.66;48.97;98653.38;7633384;32;40617;-78
2023/07/25 05:53:09;;;;;;;7.18;3.40;;;;;;;25.45;49.99;98651.41;7633183;32;38808;-77
2023/07/25 05:57:26;;;;;;;7.03;3.90;;;;;;;25.60;49.03;98653.00;7634031;32;37394;-76
2023/07/25 06:01:42;;;;;;;8.52;3.67;;;;;;;25.84;49.11;98645.00;7659872;32;37874;-74
2023/07/25 06:05:59;;;;;;;9.88;3.75;;;;;;;25.75;48.33;98659.37;7659442;32;40004;-74
2023/07/25 06:10:15;;;;;;;8.68;4.00;;;;;;;25.96;49.08;98644.59;7659321;32;37665;-74
2023/07/25 06:14:31;;;;;;;8.90;3.62;;;;;;;25.91;49.46;98622.63;7659295;32;36840;-75
2023/07/25 06:18:48;;;;;;;8.10;3.80;;;;;;;26.02;48.87;98612.22;7659317;32;39365;-75
2023/07/25 06:23:05;;;;;;;7.30;3.55;;;;;;;26.27;49.03;98579.81;7659324;32;40840;-75
2023/07/25 06:27:21;;;;;;;8.23;3.15;;;;;;;26.55;47.18;98576.84;7659034;32;37580;-75
2023/07/25 06:31:41;;;;;;;7.87;3.60;;;;;;;26.41;45.86;98571.38;7641869;32;36826;-75
2023/07/25 06:35:57;;;;;;;5.97;3.28;;;;;;;26.10;46.54;98585.09;7641781;32;39681;-75
2023/07/25 06:40:14;;;;;;;7.97;3.10;;;;;;;26.22;45.74;98572.66;7642419;32;40975;-74
2023/07/25 06:44:30;;;;;;;10.65;3.67;;;;;;;25.75;44.94;98575.63;7643212;32;38563;-75
2023/07/25 06:48:46;;;;;;;7.85;3.45;;;;;;;26.32;44.12;98577.41;7647648;32;37246;-75
2023/07/25 06:53:04;;;;;;;6.40;3.37;;;;;;;26.28;43.17;98562.66;7632720;32;39315;-75
2023/07/25 06:57:20;;;;;;;5.12;3.05;;;;;;;26.01;44.97;98562.41;7632319;32;40700;-75
2023/07/25 07:01:36;;;;;;;7.40;3.00;;;;;;;26.37;44.40;98539.84;7634311;32;38097;-74
2023/07/25 07:05:54;;;;;;;5.93;3.28;;;;;;;26.51;42.48;98530.56;7642060;32;37610;-75
2023/07/25 07:10:11;;;;;;;5.57;3.03;;;;;;;26.82;41.82;98527.97;7643319;32;40066;-75
2023/07/25 07:14:27;;;;;;;10.15;3.50;;;;;;;26.83;41.41;98518.38;7652201;32;40020;-75
2023/07/25 07:18:45;;;;;;;8.27;3.53;;;;;;;26.68;41.55;98514.91;7652713;32;37863;-75
2023/07/25 07:23:01;;;;;;;8.10;3.17;;;;;;;26.93;42.23;98493.13;7632818;32;36822;-75
2023/07/25 07:27:19;;;;;;;5.87;3.00;;;;;;;27.37;40.63;98485.09;7632340;32;39374;-75
2023/07/25 07:31:36;;;;;;;7.65;3.05;;;;;;;27.65;38.70;98470.00;7632291;32;39232;-74
2023/07/25 07:35:52;;;;;;;7.45;3.22;;;;;;;27.83;39.16;98461.34;7631982;32;38635;-74
2023/07/25 07:40:09;;;;;;;8.18;2.97;;;;;;;28.02;38.19;98451.50;7648755;32;37874;-75
2023/07/25 07:44:25;;;;;;;8.15;3.22;;;;;;;28.21;38.75;98457.66;7643752;32;39784;-80
2023/07/25 07:48:43;;;;;;;11.27;3.62;;;;;;;27.88;39.19;98463.69;7645644;32;39997;-74
2023/07/25 07:52:59;;;;;;;5.78;3.00;;;;;;;28.18;39.29;98464.91;7642575;32;38608;-74
2023/07/25 07:57:16;;;;;;;10.70;3.47;;;;;;;27.73;41.19;98454.69;7631675;32;37060;-82
2023/07/25 08:01:32;;;;;;;6.93;2.95;;;;;;;27.78;40.18;98453.41;7655449;32;39984;-82
2023/07/25 08:05:57;;;;;;;6.07;3.05;;;;;;;27.72;38.75;98441.91;7656882;32;39717;-82
2023/07/25 08:10:13;;;;;;;5.78;2.90;;;;;;;27.69;40.34;98434.34;7657421;32;37613;-83
2023/07/25 08:14:30;;;;;;;5.87;3.22;;;;;;;27.84;39.36;98442.56;7657951;32;37236;-83
2023/07/25 08:18:46;;;;;;;7.22;3.20;;;;;;;27.67;39.51;98453.56;7657840;32;39407;-75
2023/07/25 08:23:02;;;;;;;9.50;3.60;;;;;;;27.66;41.85;98432.38;7657670;32;41005;-74
2023/07/25 08:27:19;;;;;;;11.80;3.37;;;;;;;27.54;45.20;98450.53;7656372;32;38635;-74
2023/07/25 08:31:35;;;;;;;8.50;3.65;;;;;;;27.52;45.92;98438.16;7657691;32;37168;-82
2023/07/25 08:35:53;;;;;;;7.28;3.25;;;;;;;27.39;46.41;98442.72;7657467;32;39319;-82
2023/07/25 08:40:10;;;;;;;9.48;3.40;;;;;;;27.17;46.17;98445.75;7657365;32;39961;-81
2023/07/25 08:44:27;;;;;;;7.28;3.45;;;;;;;26.99;46.20;98465.50;7648509;32;38080;-80
2023/07/25 08:48:43;;;;;;;10.30;3.55;;;;;;;26.64;48.55;98516.94;7639110;32;37111;-81
2023/07/25 08:53:05;;;;;;;10.98;4.30;;;;;;;26.49;51.81;98628.81;7633517;32;39332;-79
2023/07/25 08:57:22;;;;;;;11.80;4.00;;;;;;;25.43;56.22;98587.66;7633697;32;39906;-80
2023/07/25 09:01:38;;;;;;;7.97;3.75;;;;;;;25.20;58.59;98578.88;7633711;32;38785;-79
2023/07/25 09:05:58;;;;;;;11.05;3.85;;;;;;;24.87;59.15;98570.56;7632778;32;38566;-79
2023/07/25 09:10:14;;;;;;;10.25;4.90;;;;;;;24.30;60.75;98584.34;7634672;32;40128;-80
2023/07/25 09:14:31;;;;;;;10.23;4.07;;;;;;;23.96;60.66;98668.16;7640910;32;40773;-80
2023/07/25 09:18:47;;;;;;;10.98;4.12;;;;;;;23.20;62.72;98741.84;7641143;32;37614;-79
2023/07/25 09:23:03;;;;;;;9.43;4.07;;;;;;;22.74;64.57;98801.25;7634141;32;37126;-81
2023/07/25 09:27:20;;;;;;;10.77;4.45;;;;;;;22.20;65.80;98763.63;7633649;32;39309;-83
2023/07/25 09:31:44;;;;;;;10.35;4.35;;;;;;;22.07;66.74;98799.09;7633635;32;39973;-82
2023/07/25 09:36:01;;;;;;;7.70;3.90;;;;;;;22.18;65.74;98805.63;7632410;32;36923;-83
2023/07/25 09:40:17;;;;;;;13.60;4.15;;;;;;;22.49;64.93;98837.81;7633639;32;37518;-83
2023/07/25 09:44:33;;;;;;;9.35;4.60;;;;;;;22.21;66.17;98865.91;7644924;32;40168;-83
2023/07/25 09:48:52;;;;;;;10.88;4.50;;;;;;;21.71;68.60;98851.22;7639976;32;40723;-83
2023/07/25 09:53:26;;;;;;;12.48;4.60;;;;;;;22.01;67.73;98815.28;7632180;32;36917;-83
2023/07/25 09:57:43;;;;;;;9.73;4.75;;;;;;;21.83;69.39;98812.19;7633196;32;37131;-84
2023/07/25 10:02:00;;;;;;;10.40;4.12;;;;;;;22.23;67.78;98765.63;7633023;32;40041;-83
2023/07/25 10:06:17;;;;;;;9.57;4.00;;;;;;;22.40;68.27;98730.97;7632108;32;40781;-76
2023/07/25 10:10:34;;;;;;;9.18;4.03;;;;;;;22.50;67.16;98716.44;7631860;32;38685;-74
2023/07/25 10:14:50;;;;;;;12.20;4.85;;;;;;;22.69;66.83;98718.25;7633194;32;37250;-75
2023/07/25 10:19:06;;;;;;;11.35;4.57;;;;;;;22.88;66.21;98683.91;7633030;32;39483;-75
2023/07/25 10:23:34;;;;;;;10.57;4.45;;;;;;;22.97;66.46;98694.72;7642940;32;39950;-75
2023/07/25 10:27:59;;;;;;;8.05;4.00;;;;;;;22.86;65.08;98702.94;7632824;32;38681;-75
2023/07/25 10:32:19;;;;;;;8.93;4.28;;;;;;;22.59;65.63;98691.13;7633028;32;37056;-76
2023/07/25 10:36:39;;;;;;;9.90;4.40;;;;;;;22.65;65.30;98672.97;7632970;32;39485;-80
2023/07/25 10:40:59;;;;;;;12.32;4.55;;;;;;;22.62;66.33;98662.63;7632810;32;40767;-81
2023/07/25 10:45:28;;;;;;;7.82;3.97;;;;;;;22.43;67.26;98638.59;7635527;32;36823;-81
2023/07/25 10:49:57;;;;;;;11.38;4.10;;;;;;;22.30;66.99;98591.66;7650419;32;36874;-81
2023/07/25 10:54:21;;;;;;;9.32;4.10;;;;;;;22.59;66.31;98568.94;7650457;32;39503;-81
2023/07/25 10:59:05;;;;;;;8.55;4.00;;;;;;;22.66;67.17;98563.44;7649942;32;38379;-81
2023/07/25 11:03:31;;;;;;;10.73;4.00;;;;;;;22.74;67.66;98520.66;7651151;32;38634;-81
2023/07/25 11:07:55;;;;;;;7.50;3.55;;;;;;;23.03;66.76;98516.13;7653308;32;37326;-81
2023/07/25 11:12:13;;;;;;;9.25;3.85;;;;;;;23.33;65.99;98520.69;7649682;32;37845;-80
2023/07/25 11:16:31;;;;;;;6.93;3.35;;;;;;;23.67;64.45;98545.53;7650290;32;39801;-82
2023/07/25 11:21:09;;;;;;;6.47;3.37;;;;;;;23.57;61.77;98555.41;7652163;32;38798;-80
2023/07/25 11:25:26;;;;;;;8.02;3.47;;;;;;;24.09;63.64;98560.03;7650606;32;37085;-81
2023/07/25 11:29:43;;;;;;;5.95;3.30;;;;;;;24.38;63.71;98528.28;7650181;32;39427;-83
2023/07/25 11:34:16;;;;;;;7.40;3.47;;;;;;;24.74;62.60;98510.81;7648546;32;40710;-83
2023/07/25 11:38:36;;;;;;;8.38;3.42;;;;;;;25.16;60.03;98488.88;7640403;32;37947;-82
2023/07/25 11:42:52;;;;;;;6.25;3.15;;;;;;;25.58;57.62;98499.16;7654479;32;37395;-83
2023/07/25 11:47:09;;;;;;;8.88;3.65;;;;;;;26.15;58.76;98459.00;7631810;32;40022;-83
2023/07/25 11:51:25;;;;;;;6.53;3.08;;;;;;;26.37;56.51;98416.91;7631275;32;40506;-83
2023/07/25 11:55:42;;;;;;;5.30;3.12;;;;;;;26.86;59.06;98416.91;7630779;32;37913;-84
2023/07/25 12:00:03;;;;;;;5.20;2.55;;;;;;;27.38;54.83;98424.38;7631917;32;37554;-84
2023/07/25 12:04:20;;;;;;;6.28;3.17;;;;;;;27.54;52.63;98421.75;7632069;32;40015;-84
2023/07/25 12:08:42;;;;;;;5.40;3.00;;;;;;;27.49;52.75;98422.19;7631775;32;39932;-84
2023/07/25 12:13:02;;;;;;;5.97;2.90;;;;;;;27.59;51.03;98448.47;7631667;32;38699;-84
2023/07/25 12:17:19;;;;;;;6.90;3.10;;;;;;;27.15;53.64;98445.38;7631860;32;37012;-84
2023/07/25 12:21:37;;;;;;;5.70;3.12;;;;;;;26.35;54.94;98452.88;7631578;32;39588;-84
2023/07/25 12:25:55;;;;;;;5.75;3.22;;;;;;;26.53;54.73;98473.09;7630232;32;39905;-84
2023/07/25 12:30:12;;;;;;;7.65;2.78;;;;;;;26.87;53.42;98480.81;7631141;32;37582;-83
2023/07/25 12:34:29;;;;;;;5.35;2.70;;;;;;;26.87;54.90;98483.59;7631419;32;37610;-84
2023/07/25 12:38:45;;;;;;;6.93;3.25;;;;;;;27.25;53.98;98457.62;7631246;32;40144;-84
2023/07/25 12:43:03;;;;;;;8.55;3.50;;;;;;;27.11;51.98;98422.22;7631141;32;39878;-84
2023/07/25 12:47:20;;;;;;;7.45;3.50;;;;;;;26.54;52.87;98418.75;7631102;32;38711;-84
2023/07/25 12:51:37;;;;;;;7.72;3.17;;;;;;;26.79;53.23;98401.78;7631029;32;37228;-84
2023/07/25 12:55:53;;;;;;;7.62;3.40;;;;;;;26.34;56.81;98414.97;7630837;32;39560;-84
2023/07/25 13:00:11;;;;;;;7.53;3.65;;;;;;;26.42;54.06;98408.91;7630583;32;40778;-84
2023/07/25 13:04:28;;;;;;;7.50;3.15;;;;;;;26.33;54.45;98402.19;7630485;32;38782;-84
2023/07/25 13:08:45;;;;;;;8.80;3.60;;;;;;;26.40;54.10;98371.41;7630551;32;37079;-84
2023/07/25 13:13:02;;;;;;;8.30;3.15;;;;;;;26.46;54.41;98313.88;7630468;32;39384;-84
2023/07/25 13:17:19;;;;;;;7.40;2.85;;;;;;;26.33;54.83;98296.06;7630241;32;39934;-84
2023/07/25 13:21:36;;;;;;;7.40;3.10;;;;;;;26.21;55.98;98397.91;7630135;32;38703;-84
2023/07/25 13:25:53;;;;;;;6.10;3.17;;;;;;;26.67;56.29;98395.94;7630538;32;35058;-84
2023/07/25 13:30:10;;;;;;;8.05;3.20;;;;;;;27.46;54.56;98404.25;7630080;32;40143;-84
2023/07/25 13:34:28;;;;;;;8.93;3.00;;;;;;;27.26;51.86;98415.25;7630158;32;40513;-84
2023/07/25 13:38:44;;;;;;;6.07;2.92;;;;;;;27.24;54.12;98451.25;7632725;32;37910;-84
2023/07/25 13:43:05;;;;;;;6.57;3.22;;;;;;;27.22;53.32;98450.88;7633717;32;37842;-84
2023/07/25 13:47:22;;;;;;;5.25;2.83;;;;;;;27.07;55.16;98466.22;7633542;32;39105;-84
2023/07/25 13:51:39;;;;;;;7.78;3.33;;;;;;;27.13;53.37;98479.34;7632339;32;40032;-84
2023/07/25 13:55:56;;;;;;;5.40;3.03;;;;;;;27.30;51.33;98471.19;7639658;32;38691;-75
2023/07/25 14:00:13;;;;;;;7.15;3.47;;;;;;;26.90;52.06;98474.38;7651955;32;166018;-75
2023/07/25 14:04:29;;;;;;;6.85;3.10;;;;;;;26.84;53.77;98459.28;7654144;32;39009;-75
2023/07/25 14:08:45;;;;;;;5.70;3.03;;;;;;;27.70;52.49;98458.31;7658580;32;40031;-76
2023/07/25 14:13:03;;;;;;;8.30;3.40;;;;;;;27.13;51.64;98456.97;7658856;32;38648;-84
2023/07/25 14:17:20;;;;;;;7.25;3.25;;;;;;;27.09;52.43;98453.41;7647745;32;36272;-84
2023/07/25 14:21:40;;;;;;;6.85;3.62;;;;;;;26.55;54.68;98439.94;7632592;32;38968;-83
2023/07/25 14:25:57;;;;;;;7.62;3.40;;;;;;;26.01;55.58;98440.34;7632832;32;40005;-83
2023/07/25 14:30:14;;;;;;;6.35;3.33;;;;;;;25.49;56.39;98440.19;7631805;32;37773;-83
2023/07/25 14:34:32;;;;;;;6.82;3.58;;;;;;;25.48;56.51;98421.88;7632264;32;37009;-83
2023/07/25 14:38:49;;;;;;;8.02;3.37;;;;;;;25.47;56.11;98407.13;7632121;32;39348;-84
2023/07/25 14:43:06;;;;;;;7.70;3.78;;;;;;;24.83;57.71;98388.59;7647482;32;39670;-83
2023/07/25 14:47:24;;;;;;;7.07;3.40;;;;;;;24.72;57.63;98363.53;7658635;32;37240;-83
2023/07/25 14:51:41;;;;;;;6.07;2.97;;;;;;;25.17;57.45;98339.91;7658118;32;36968;-83
2023/07/25 14:55:58;;;;;;;10.05;3.70;;;;;;;24.89;57.78;98277.50;7658699;32;39325;-83
2023/07/25 15:00:15;;;;;;;7.95;3.10;;;;;;;25.28;58.47;98260.59;7657227;32;39745;-83
2023/07/25 15:04:33;;;;;;;5.45;3.28;;;;;;;25.48;55.88;98276.81;7656112;32;37986;-83
2023/07/25 15:08:52;;;;;;;6.70;3.10;;;;;;;25.17;55.72;98273.78;7658266;32;37680;-83
2023/07/25 15:13:09;;;;;;;6.30;3.10;;;;;;;25.76;55.77;98255.47;7656723;32;39110;-83
2023/07/25 15:17:26;;;;;;;5.28;2.92;;;;;;;26.13;54.25;98240.81;7631927;32;40764;-82
2023/07/25 15:21:43;;;;;;;6.18;2.80;;;;;;;26.71;53.79;98218.59;7631512;32;38469;-84
2023/07/25 15:25:59;;;;;;;6.22;2.85;;;;;;;27.04;50.12;98232.16;7631855;32;36875;-85
2023/07/25 15:30:17;;;;;;;5.05;2.85;;;;;;;26.54;52.37;98267.09;7631643;32;39306;-84
2023/07/25 15:34:34;;;;;;;7.05;3.12;;;;;;;26.82;51.69;98271.59;7631767;32;40803;-82
2023/07/25 15:38:51;;;;;;;10.60;3.30;;;;;;;26.19;52.28;98283.81;7651425;32;38795;-83
2023/07/25 15:43:07;;;;;;;6.85;2.87;;;;;;;26.49;54.10;98289.91;7657508;32;36819;-81
2023/07/25 15:47:25;;;;;;;6.78;2.90;;;;;;;26.24;52.55;98300.13;7656954;32;39199;-82
2023/07/25 15:51:45;;;;;;;5.00;2.53;;;;;;;25.92;52.12;98316.34;7655585;32;39965;-83
2023/07/25 15:56:01;;;;;;;5.93;2.95;;;;;;;25.96;50.92;98323.50;7634713;32;37811;-82
2023/07/25 16:00:18;;;;;;;4.20;2.50;;;;;;;25.65;52.92;98342.06;7644380;32;37313;-82
2023/07/25 16:04:35;;;;;;;5.62;2.65;;;;;;;25.52;52.97;98346.53;7657190;32;39758;-82
2023/07/25 16:08:52;;;;;;;7.15;3.10;;;;;;;24.74;54.48;98357.56;7657631;32;40876;-82
2023/07/25 16:13:08;;;;;;;6.90;3.37;;;;;;;24.72;55.29;98369.13;7656944;32;38814;-82
2023/07/25 16:17:25;;;;;;;7.12;3.37;;;;;;;24.22;57.71;98377.50;7657429;32;37117;-83
2023/07/25 16:21:42;;;;;;;5.28;2.92;;;;;;;24.67;55.71;98372.31;7657033;32;39278;-83
2023/07/25 16:25:58;;;;;;;6.75;3.25;;;;;;;25.43;53.64;98358.12;7657230;32;39950;-83
2023/07/25 16:30:19;;;;;;;5.65;2.87;;;;;;;25.72;52.33;98353.16;7656169;32;37949;-82
2023/07/25 16:34:37;;;;;;;5.65;2.90;;;;;;;25.43;52.46;98364.50;7656478;32;37791;-82
2023/07/25 16:38:54;;;;;;;6.93;3.45;;;;;;;25.39;53.12;98377.66;7657056;32;39253;-83
2023/07/25 16:43:11;;;;;;;5.95;3.05;;;;;;;25.24;53.84;98373.31;7656574;32;39964;-83
2023/07/25 16:47:29;;;;;;;6.55;3.35;;;;;;;25.33;53.64;98362.56;7656499;32;38662;-83
2023/07/25 16:51:45;;;;;;;5.55;3.00;;;;;;;25.18;54.19;98363.78;7657073;32;37725;-82
2023/07/25 16:56:02;;;;;;;6.60;3.28;;;;;;;25.15;54.09;98370.97;7656300;32;40194;-82
2023/07/25 17:00:19;;;;;;;6.25;3.37;;;;;;;25.20;54.83;98383.69;7655425;32;39556;-82
2023/07/25 17:04:36;;;;;;;7.15;3.00;;;;;;;24.92;56.08;98386.19;7655881;32;38743;-82
2023/07/25 17:08:52;;;;;;;6.05;2.97;;;;;;;24.73;55.92;98392.19;7652440;32;37867;-83
2023/07/25 17:13:13;;;;;;;7.60;3.30;;;;;;;24.86;55.15;98406.50;7658194;32;39456;-83
2023/07/25 17:17:30;;;;;;;4.75;2.90;;;;;;;24.98;53.62;98411.66;7656849;32;39850;-82
2023/07/25 17:21:47;;;;;;;6.45;3.05;;;;;;;24.96;53.55;98416.84;7658809;32;38288;-82
2023/07/25 17:26:04;;;;;;;4.68;2.60;;;;;;;24.85;53.32;98413.28;7658485;32;37285;-80
2023/07/25 17:30:20;;;;;;;6.07;3.10;;;;;;;25.02;52.91;98415.22;7659006;32;39302;-81
2023/07/25 17:34:36;;;;;;;6.43;2.92;;;;;;;24.81;53.18;98418.06;7647926;32;39960;-80
2023/07/25 17:38:53;;;;;;;7.45;2.72;;;;;;;24.60;53.55;98422.47;7659168;32;37870;-80
2023/07/25 17:43:09;;;;;;;4.65;2.20;;;;;;;24.78;52.78;98424.44;7643310;32;36839;-76
2023/07/25 17:47:25;;;;;;;4.65;2.72;;;;;;;24.33;53.79;98442.31;7632429;32;39449;-81
2023/07/25 17:51:42;;;;;;;5.55;2.60;;;;;;;24.41;53.98;98440.34;7636704;32;40928;-81
2023/07/25 17:55:58;;;;;;;3.92;2.30;;;;;;;24.36;53.90;98440.75;7655669;32;38036;-82
2023/07/25 18:00:15;;;;;;;2.75;1.90;;;;;;;24.38;53.86;98425.22;7645597;32;36994;-81
2023/07/25 18:04:32;;;;;;;2.97;2.05;;;;;;;23.91;55.16;98418.84;7651047;32;39407;-82
2023/07/25 18:08:48;;;;;;;4.03;1.80;;;;;;;24.13;54.92;98413.31;7644402;32;39628;-79
2023/07/25 18:13:05;;;;;;;4.10;1.70;;;;;;;24.00;55.25;98404.53;7654510;32;38726;-84
2023/07/25 18:17:22;;;;;;;2.20;1.58;;;;;;;23.67;56.94;98408.41;7656646;32;37561;-81
2023/07/25 18:21:38;;;;;;;4.30;2.40;;;;;;;23.80;56.46;98406.84;7656754;32;39294;-84
2023/07/25 18:26:00;;;;;;;5.03;1.95;;;;;;;23.73;56.96;98401.25;7657619;32;39999;-84
2023/07/25 18:30:16;;;;;;;2.55;1.55;;;;;;;23.60;57.52;98415.53;7649893;32;37952;-84
2023/07/25 18:34:32;;;;;;;5.85;2.10;;;;;;;23.76;56.51;98428.31;7651214;32;37113;-85
2023/07/25 18:38:49;;;;;;;5.60;1.80;;;;;;;23.66;56.89;98427.06;7633739;32;39535;-84
2023/07/25 18:43:05;;;;;;;3.72;1.98;;;;;;;23.59;56.48;98435.41;7654121;32;40841;-85
2023/07/25 18:47:21;;;;;;;3.50;2.47;;;;;;;23.41;57.02;98435.34;7648989;32;37980;-84
2023/07/25 18:51:50;;;;;;;5.70;2.92;;;;;;;23.14;57.60;98423.69;7652128;32;38008;-84
2023/07/25 18:56:06;;;;;;;4.72;3.08;;;;;;;22.98;58.07;98429.56;7656955;32;39959;-84
2023/07/25 19:00:22;;;;;;;6.20;3.25;;;;;;;22.91;58.11;98446.19;7655893;32;39991;-86
2023/07/25 19:04:42;;;;;;;4.97;3.17;;;;;;;22.99;57.97;98453.34;7660420;32;38666;-83
2023/07/25 19:08:59;;;;;;;5.85;3.15;;;;;;;22.84;58.41;98444.94;7646067;32;37986;-83
2023/07/25 19:13:15;;;;;;;6.75;3.80;;;;;;;22.54;59.37;98449.88;7649620;32;39793;-84
2023/07/25 19:17:34;;;;;;;6.30;3.78;;;;;;;22.34;60.30;98452.91;7651312;32;40021;-83
2023/07/25 19:21:54;;;;;;;6.53;3.62;;;;;;;22.47;59.89;98450.62;7648437;32;38786;-85
2023/07/25 19:26:10;;;;;;;8.75;4.28;;;;;;;22.38;60.63;98459.25;7632216;32;37081;-84
2023/07/25 19:30:27;;;;;;;7.82;3.90;;;;;;;22.23;61.37;98463.06;7635062;32;40394;-82
2023/07/25 19:34:43;;;;;;;9.20;3.95;;;;;;;22.21;61.75;98449.56;7657362;32;40005;-82
2023/07/25 19:39:00;;;;;;;6.22;3.40;;;;;;;22.38;60.98;98448.16;7657532;32;37878;-81
2023/07/25 19:43:16;;;;;;;5.60;3.45;;;;;;;22.32;61.10;98446.94;7656880;32;37039;-81
2023/07/25 19:47:33;;;;;;;6.05;3.35;;;;;;;22.33;61.09;98451.28;7657553;32;39368;-81
2023/07/25 19:51:49;;;;;;;7.68;4.07;;;;;;;22.34;61.04;98447.34;7657348;32;41216;-80
2023/07/25 19:56:06;;;;;;;7.03;3.70;;;;;;;22.34;60.98;98458.44;7657049;32;37710;-82
2023/07/25 20:00:23;;;;;;;9.05;3.90;;;;;;;22.30;61.17;98452.03;7657260;32;37963;-81
2023/07/25 20:04:39;;;;;;;7.50;3.45;;;;;;;22.22;61.31;98456.72;7657396;32;39090;-80
2023/07/25 20:08:56;;;;;;;7.18;3.75;;;;;;;22.13;61.43;98454.25;7657961;32;40834;-80